createdAt,value
2023-01-05T08:00:50.649Z,3.72
2023-01-05T08:10:19.583Z,3.88
2023-01-05T08:13:01.501Z,3.78
2023-01-05T08:15:29.316Z,6.35
2023-01-05T08:17:57.095Z,2.72
2023-01-05T08:20:24.930Z,1.35
2023-01-05T08:22:53.436Z,6.32
2023-01-05T08:25:22.871Z,6.95
2023-01-05T08:27:50.652Z,5.43
2023-01-05T08:30:18.705Z,5.35
2023-01-05T08:32:46.509Z,7.00
2023-01-05T08:35:14.431Z,4.50
2023-01-05T08:37:45.189Z,1.67
2023-01-05T08:40:13.669Z,2.40
2023-01-05T08:42:42.933Z,3.50
2023-01-05T08:45:11.703Z,6.47
2023-01-05T08:47:39.488Z,4.38
2023-01-05T08:50:09.404Z,1.80
2023-01-05T08:52:37.490Z,5.97
2023-01-05T08:55:05.772Z,2.88
2023-01-05T08:57:33.589Z,6.18
2023-01-05T09:00:02.906Z,3.45
2023-01-05T09:02:36.215Z,5.00
2023-01-05T09:05:04.177Z,3.53
2023-01-05T09:07:31.856Z,4.43
2023-01-05T09:09:59.636Z,4.50
2023-01-05T09:12:32.811Z,3.40
2023-01-05T09:15:02.527Z,1.60
2023-01-05T09:17:30.440Z,8.38
2023-01-05T09:19:58.272Z,4.47
2023-01-05T09:22:26.093Z,5.68
2023-01-05T09:24:53.826Z,2.92
2023-01-05T09:27:21.549Z,2.85
2023-01-05T09:29:49.296Z,8.68
2023-01-05T09:32:18.423Z,9.25
2023-01-05T09:34:46.183Z,4.93
2023-01-05T09:37:14.040Z,6.50
2023-01-05T09:39:41.901Z,4.07
2023-01-05T09:42:14.968Z,3.00
2023-01-05T09:44:46.807Z,3.30
2023-01-05T09:47:19.485Z,2.67
2023-01-05T09:49:50.015Z,3.10
2023-01-05T09:52:22.219Z,4.95
2023-01-05T09:54:50.184Z,0.73
2023-01-05T09:57:21.095Z,4.60
2023-01-05T09:59:50.843Z,19.90
2023-01-05T10:02:26.443Z,5.72
2023-01-05T10:04:55.534Z,5.40
2023-01-05T10:07:35.388Z,3.42
2023-01-05T10:10:10.035Z,5.15
2023-01-05T10:13:02.140Z,3.65
2023-01-05T10:15:35.439Z,1.42
2023-01-05T10:18:11.785Z,2.60
2023-01-05T10:20:46.860Z,2.20
2023-01-05T10:23:31.660Z,0.93
2023-01-05T10:26:06.197Z,3.75
2023-01-05T10:28:42.288Z,4.70
2023-01-05T10:31:21.022Z,3.15
2023-01-05T10:33:56.683Z,6.95
2023-01-05T10:40:00.441Z,4.90
2023-01-05T10:42:45.366Z,2.63
2023-01-05T10:45:15.786Z,6.75
2023-01-05T10:47:45.233Z,3.60
2023-01-05T10:50:39.635Z,1.13
2023-01-05T10:53:12.077Z,0.98
2023-01-05T10:55:46.272Z,0.25
2023-01-05T10:58:25.214Z,0.95
2023-01-05T11:00:56.487Z,2.50
2023-01-05T11:03:57.309Z,3.88
2023-01-05T11:06:22.933Z,1.65
2023-01-05T11:08:51.539Z,0.25
2023-01-05T11:11:24.738Z,1.98
2023-01-05T11:14:01.489Z,5.68
2023-01-05T11:16:32.549Z,0.35
2023-01-05T11:19:02.306Z,3.92
2023-01-05T11:21:44.209Z,0.65
2023-01-05T11:24:28.741Z,0.60
2023-01-05T11:26:58.607Z,0.85
2023-01-05T11:29:26.721Z,0.30
2023-01-05T11:31:57.974Z,1.65
2023-01-05T11:34:45.585Z,1.27
2023-01-05T11:37:25.548Z,0.10
2023-01-05T11:39:56.321Z,0.38
2023-01-05T11:42:32.029Z,0.20
2023-01-05T11:45:03.037Z,0.93
2023-01-05T11:47:43.143Z,0.63
2023-01-05T11:50:21.455Z,1.30
2023-01-05T11:52:51.809Z,0.00
2023-01-05T11:55:30.103Z,0.47
2023-01-05T11:58:17.252Z,1.55
2023-01-05T12:01:12.773Z,0.20
2023-01-05T12:04:04.237Z,1.52
2023-01-05T12:06:58.180Z,0.00
2023-01-05T12:09:34.954Z,1.10
2023-01-05T12:12:27.772Z,0.00
2023-01-05T12:15:27.847Z,4.25
2023-01-05T12:18:02.977Z,0.47
2023-01-05T12:20:50.868Z,5.95
2023-01-05T12:23:32.987Z,2.65
2023-01-05T12:26:11.114Z,1.58
2023-01-05T12:29:34.473Z,0.28
2023-01-05T12:35:01.908Z,1.00
2023-01-05T12:37:38.956Z,1.10
2023-01-05T12:40:29.554Z,2.83
2023-01-05T12:43:03.347Z,0.65
2023-01-05T12:45:57.633Z,1.02
2023-01-05T12:48:31.751Z,1.00
2023-01-05T12:51:09.700Z,0.00
2023-01-05T12:53:46.173Z,1.42
2023-01-05T12:56:21.840Z,3.60
2023-01-05T12:59:00.975Z,2.00
2023-01-05T13:01:32.353Z,1.17
2023-01-05T13:04:05.010Z,0.22
2023-01-05T13:06:38.984Z,0.90
2023-01-05T13:09:14.304Z,1.90
2023-01-05T13:11:48.718Z,0.60
2023-01-05T13:14:21.164Z,0.57
2023-01-05T13:16:58.418Z,0.45
2023-01-05T13:19:32.303Z,2.80
2023-01-05T13:22:04.936Z,1.33
2023-01-05T13:24:38.250Z,1.77
2023-01-05T13:27:06.035Z,1.75
2023-01-05T13:29:37.744Z,0.38
2023-01-05T13:32:26.209Z,0.60
2023-01-05T13:35:19.327Z,1.83
2023-01-05T13:38:02.594Z,0.10
2023-01-05T13:40:48.677Z,0.70
2023-01-05T13:43:45.627Z,1.70
2023-01-05T13:46:30.506Z,0.20
2023-01-05T13:49:20.112Z,0.40
2023-01-05T13:51:58.907Z,0.00
2023-01-05T13:55:00.015Z,0.35
2023-01-05T13:57:31.553Z,1.27
2023-01-05T14:00:09.369Z,0.10
2023-01-05T14:02:45.044Z,0.00
2023-01-05T14:05:24.618Z,0.25
2023-01-05T14:07:53.118Z,1.55
2023-01-05T14:10:25.221Z,2.08
2023-01-05T14:12:55.220Z,1.08
2023-01-05T14:15:38.867Z,2.90
2023-01-05T14:18:09.563Z,2.75
2023-01-05T14:20:41.018Z,2.53
2023-01-05T14:23:46.013Z,2.92
2023-01-05T14:26:13.864Z,0.65
2023-01-05T14:28:44.722Z,4.35
2023-01-05T14:31:37.387Z,2.00
2023-01-05T14:34:13.752Z,0.47
2023-01-05T14:36:44.299Z,2.05
2023-01-05T14:39:25.777Z,0.00
2023-01-05T14:42:03.375Z,1.75
2023-01-05T14:44:35.966Z,0.50
2023-01-05T14:47:05.783Z,1.13
2023-01-05T14:49:38.715Z,1.25
2023-01-05T14:52:16.202Z,1.30
2023-01-05T14:55:21.727Z,0.22
2023-01-05T14:57:55.910Z,2.47
2023-01-05T15:00:41.560Z,0.95
2023-01-05T15:03:19.937Z,1.17
2023-01-05T15:05:59.262Z,1.10
2023-01-05T15:08:51.570Z,4.15
2023-01-05T15:11:36.180Z,1.52
2023-01-05T15:14:34.928Z,0.60
2023-01-05T15:17:30.002Z,1.50
2023-01-05T15:20:14.256Z,2.40
2023-01-05T15:22:56.947Z,4.65
2023-01-05T15:26:02.944Z,1.83
2023-01-05T15:29:10.190Z,3.00
2023-01-05T15:31:48.783Z,1.80
2023-01-05T15:34:24.461Z,1.55
2023-01-05T15:37:01.322Z,1.30
2023-01-05T15:39:45.260Z,0.70
2023-01-05T15:42:18.275Z,4.97
2023-01-05T15:44:48.813Z,2.53
2023-01-05T15:47:18.648Z,2.10
2023-01-05T15:49:47.955Z,0.80
2023-01-05T15:52:32.885Z,0.10
2023-01-05T15:55:04.818Z,0.93
2023-01-05T15:57:32.649Z,3.70
2023-01-05T16:00:00.505Z,0.90
2023-01-05T16:02:31.197Z,1.95
2023-01-05T16:05:14.267Z,0.25
2023-01-05T16:07:44.282Z,0.63
2023-01-05T16:10:24.932Z,0.35
2023-01-05T16:12:56.695Z,1.27
2023-01-05T16:15:26.132Z,0.82
2023-01-05T16:17:57.158Z,0.95
2023-01-05T16:20:26.670Z,0.30
2023-01-05T16:23:08.939Z,0.85
2023-01-05T16:25:43.593Z,2.17
2023-01-05T16:28:17.595Z,1.48
2023-01-05T16:30:47.573Z,1.75
2023-01-05T16:33:34.710Z,2.45
2023-01-05T16:36:13.211Z,2.63
2023-01-05T16:38:41.632Z,1.67
2023-01-05T16:41:22.412Z,2.67
2023-01-05T16:43:56.705Z,3.25
2023-01-05T16:46:37.045Z,3.03
2023-01-05T16:49:27.918Z,2.33
2023-01-05T16:51:57.401Z,2.03
2023-01-05T16:54:34.945Z,2.70
2023-01-05T16:57:06.039Z,1.15
2023-01-05T16:59:45.967Z,0.85
2023-01-05T17:02:43.428Z,5.00
2023-01-05T17:05:12.110Z,3.15
2023-01-05T17:07:43.270Z,2.05
2023-01-05T17:10:23.183Z,1.08
2023-01-05T17:12:59.663Z,6.32
2023-01-05T17:15:31.690Z,1.40
2023-01-05T17:17:59.551Z,3.00
2023-01-05T17:20:31.577Z,3.22
2023-01-05T17:22:59.624Z,1.75
2023-01-05T17:25:33.464Z,2.13
2023-01-05T17:28:02.892Z,1.08
2023-01-05T17:30:30.686Z,1.92
2023-01-05T17:32:58.564Z,4.20
2023-01-05T17:35:26.501Z,2.80
2023-01-05T17:37:54.283Z,1.10
2023-01-05T17:40:23.324Z,4.93
2023-01-05T17:42:53.181Z,2.60
2023-01-05T17:45:26.175Z,2.30
2023-01-05T17:47:54.714Z,4.78
2023-01-05T17:50:26.774Z,3.72
2023-01-05T17:52:55.124Z,1.65
2023-01-05T17:55:23.650Z,2.63
2023-01-05T17:57:51.998Z,6.80
2023-01-05T18:00:23.363Z,2.08
2023-01-05T18:02:52.139Z,3.45
2023-01-05T18:05:20.422Z,3.13
2023-01-05T18:07:48.946Z,2.03
2023-01-05T18:10:19.910Z,4.00
2023-01-05T18:12:47.872Z,3.97
2023-01-05T18:15:16.449Z,2.55
2023-01-05T18:17:45.705Z,1.90
2023-01-05T18:20:16.862Z,4.18
2023-01-05T18:22:46.549Z,6.13
2023-01-05T18:25:14.375Z,4.30
2023-01-05T18:27:42.157Z,2.20
2023-01-05T18:30:11.924Z,4.82
2023-01-05T18:32:40.286Z,2.60
2023-01-05T18:35:10.594Z,4.25
2023-01-05T18:37:39.069Z,5.70
2023-01-05T18:40:08.439Z,1.70
2023-01-05T18:42:37.140Z,3.63
2023-01-05T18:45:18.610Z,7.03
2023-01-05T18:47:48.006Z,1.35
2023-01-05T18:50:17.584Z,5.32
2023-01-05T18:52:46.585Z,7.07
2023-01-05T18:55:14.296Z,6.32
2023-01-05T18:57:42.017Z,3.75
2023-01-05T19:00:10.903Z,4.88
2023-01-05T19:02:38.675Z,2.70
2023-01-05T19:05:06.574Z,2.25
2023-01-05T19:07:35.772Z,4.85
2023-01-05T19:10:03.566Z,4.88
2023-01-05T19:12:31.255Z,4.53
2023-01-05T19:14:59.072Z,6.53
2023-01-05T19:17:26.866Z,5.03
2023-01-05T19:19:54.961Z,4.00
2023-01-05T19:22:22.745Z,3.30
2023-01-05T19:24:51.821Z,6.93
2023-01-05T19:27:19.711Z,4.65
2023-01-05T19:29:47.535Z,3.33
2023-01-05T19:32:15.239Z,6.40
2023-01-05T19:34:43.010Z,2.85
2023-01-05T19:37:10.876Z,7.53
2023-01-05T19:39:38.733Z,2.63
2023-01-05T19:42:07.897Z,7.65
2023-01-05T19:44:35.684Z,5.45
2023-01-05T19:47:03.412Z,5.35
2023-01-05T19:49:31.207Z,3.78
2023-01-05T19:51:59.040Z,4.18
2023-01-05T19:54:27.586Z,14.55
2023-01-05T19:56:55.670Z,10.65
2023-01-05T19:59:32.775Z,3.53
2023-01-05T20:02:01.337Z,4.97
2023-01-05T20:04:29.404Z,4.60
2023-01-05T20:06:57.350Z,2.97
2023-01-05T20:09:25.622Z,7.68
2023-01-05T20:11:59.583Z,4.20
2023-01-05T20:14:33.054Z,10.13
2023-01-05T20:17:03.548Z,9.30
2023-01-05T20:19:33.337Z,7.20
2023-01-05T20:22:02.817Z,8.75
2023-01-05T20:24:32.601Z,16.00
2023-01-05T20:27:02.447Z,9.68
2023-01-05T20:29:32.399Z,8.45
2023-01-05T20:32:02.716Z,7.10
2023-01-05T20:34:34.913Z,12.20
2023-01-05T20:37:04.409Z,10.63
2023-01-05T20:39:33.436Z,14.95
2023-01-05T20:42:04.847Z,8.20
2023-01-05T20:44:36.973Z,10.73
2023-01-05T20:47:06.677Z,11.50
2023-01-05T20:49:35.273Z,10.60
2023-01-05T20:52:03.617Z,14.48
2023-01-05T20:54:31.750Z,11.48
2023-01-05T20:56:59.976Z,7.72
2023-01-05T20:59:30.074Z,6.50
2023-01-05T21:02:00.183Z,11.27
2023-01-05T21:04:30.430Z,13.10
2023-01-05T21:07:01.220Z,12.63
2023-01-05T21:09:31.565Z,10.75
2023-01-05T21:11:59.860Z,14.40
2023-01-05T21:14:27.921Z,8.18
2023-01-05T21:16:56.246Z,9.35
2023-01-05T21:19:25.803Z,12.40
2023-01-05T21:21:55.397Z,11.80
2023-01-05T21:24:24.120Z,18.05
2023-01-05T21:26:52.005Z,9.07
2023-01-05T21:29:22.854Z,12.20
2023-01-05T21:31:51.386Z,13.30
2023-01-05T21:34:19.278Z,14.68
2023-01-05T21:36:49.015Z,18.42
2023-01-05T21:39:21.575Z,16.02
2023-01-05T21:42:08.638Z,11.80
2023-01-05T21:44:36.943Z,14.85
2023-01-05T21:47:06.532Z,20.08
2023-01-05T21:49:34.926Z,13.55
2023-01-05T21:52:21.859Z,18.17
2023-01-05T21:55:07.543Z,9.20
2023-01-05T21:57:35.475Z,14.35
2023-01-05T22:00:03.422Z,14.68
2023-01-05T22:02:33.024Z,14.10
2023-01-05T22:05:00.816Z,23.38
2023-01-05T22:07:30.038Z,14.57
2023-01-05T22:09:57.967Z,12.00
2023-01-05T22:12:25.732Z,13.10
2023-01-05T22:14:53.504Z,13.80
2023-01-05T22:17:21.482Z,17.25
2023-01-05T22:19:49.201Z,19.88
2023-01-05T22:22:16.940Z,10.88
2023-01-05T22:24:46.065Z,13.40
2023-01-05T22:27:13.832Z,13.07
2023-01-05T22:29:41.700Z,17.02
2023-01-05T22:32:09.584Z,15.63
2023-01-05T22:34:43.492Z,14.88
2023-01-05T22:37:11.369Z,14.52
2023-01-05T22:39:39.113Z,11.05
2023-01-05T22:42:08.890Z,13.27
2023-01-05T22:44:36.632Z,11.60
2023-01-05T22:47:04.558Z,17.25
2023-01-05T22:49:32.745Z,17.15
2023-01-05T22:52:00.486Z,11.20
2023-01-05T22:54:28.778Z,10.85
2023-01-05T22:56:56.511Z,15.05
2023-01-05T22:59:27.235Z,12.77
2023-01-05T23:01:56.201Z,11.85
2023-01-05T23:04:24.037Z,9.70
2023-01-05T23:06:51.843Z,12.57
2023-01-05T23:09:19.859Z,12.48
2023-01-05T23:11:47.971Z,14.32
2023-01-05T23:14:18.389Z,7.55
2023-01-05T23:16:47.785Z,8.38
2023-01-05T23:19:16.802Z,4.88
2023-01-05T23:21:44.787Z,12.07
2023-01-05T23:24:12.521Z,11.43
2023-01-05T23:26:40.286Z,5.38
2023-01-05T23:29:08.020Z,8.13
2023-01-05T23:31:35.906Z,8.30
2023-01-05T23:34:05.007Z,9.70
2023-01-05T23:36:32.911Z,9.25
2023-01-05T23:39:00.597Z,7.53
2023-01-05T23:41:28.587Z,6.90
2023-01-05T23:43:56.362Z,7.20
2023-01-05T23:46:24.158Z,9.88
2023-01-05T23:48:53.080Z,8.55
2023-01-05T23:51:22.368Z,14.85
2023-01-05T23:53:51.863Z,8.50
2023-01-05T23:56:21.766Z,12.85
2023-01-05T23:58:50.064Z,8.73
